createdAt,value
2023-01-29T00:00:53.312Z,26.60
2023-01-29T00:03:57.403Z,23.00
2023-01-29T00:06:59.582Z,24.80
2023-01-29T00:10:04.315Z,24.30
2023-01-29T00:13:04.310Z,24.40
2023-01-29T00:16:08.354Z,26.60
2023-01-29T00:19:08.338Z,30.80
2023-01-29T00:22:03.516Z,27.30
2023-01-29T00:25:07.508Z,30.20
2023-01-29T00:28:08.374Z,31.70
2023-01-29T00:31:09.510Z,24.10
2023-01-29T00:34:10.402Z,19.80
2023-01-29T00:37:14.557Z,28.40
2023-01-29T00:40:14.542Z,31.20
2023-01-29T00:43:34.366Z,28.50
2023-01-29T00:46:29.557Z,31.30
2023-01-29T00:49:17.399Z,29.30
2023-01-29T00:52:32.385Z,22.70
2023-01-29T00:55:32.468Z,26.90
2023-01-29T00:58:40.440Z,20.50
2023-01-29T01:02:03.451Z,30.70
2023-01-29T01:05:03.378Z,31.70
2023-01-29T01:08:08.452Z,25.50
2023-01-29T01:11:13.455Z,30.00
2023-01-29T01:14:16.447Z,30.40
2023-01-29T01:17:18.998Z,31.00
2023-01-29T01:20:21.517Z,23.70
2023-01-29T01:23:22.449Z,30.20
2023-01-29T01:26:25.834Z,28.90
2023-01-29T01:29:25.452Z,27.00
2023-01-29T01:32:26.455Z,30.80
2023-01-29T01:35:32.501Z,26.20
2023-01-29T01:38:35.499Z,27.00
2023-01-29T01:41:38.835Z,25.00
2023-01-29T01:45:12.715Z,25.50
2023-01-29T01:48:43.518Z,24.10
2023-01-29T01:51:45.475Z,26.00
2023-01-29T01:54:45.506Z,24.40
2023-01-29T01:57:46.498Z,25.90
2023-01-29T02:00:48.530Z,23.00
2023-01-29T02:07:31.931Z,22.20
2023-01-29T02:10:32.541Z,25.30
2023-01-29T02:13:34.544Z,22.20
2023-01-29T02:16:35.535Z,24.80
2023-01-29T02:19:54.786Z,24.30
2023-01-29T02:23:29.921Z,23.60
2023-01-29T02:26:53.597Z,23.30
2023-01-29T02:30:06.648Z,21.80
2023-01-29T02:33:18.581Z,22.20
2023-01-29T02:36:43.651Z,22.90
2023-01-29T02:39:45.308Z,21.40
2023-01-29T02:42:53.570Z,23.90
2023-01-29T02:46:20.584Z,22.00
2023-01-29T02:49:44.558Z,22.50
2023-01-29T02:53:22.591Z,20.50
2023-01-29T02:56:30.676Z,25.30
2023-01-29T02:59:47.117Z,25.10
2023-01-29T03:03:10.898Z,26.10
2023-01-29T03:06:24.662Z,24.30
2023-01-29T03:09:53.648Z,27.10
2023-01-29T03:12:56.553Z,26.00
2023-01-29T03:16:07.786Z,20.70
2023-01-29T03:19:17.660Z,21.90
2023-01-29T03:22:33.634Z,27.60
2023-01-29T03:25:54.908Z,25.20
2023-01-29T03:29:16.149Z,23.40
2023-01-29T03:32:17.713Z,24.70
2023-01-29T03:35:19.945Z,24.00
2023-01-29T03:38:24.109Z,24.40
2023-01-29T03:41:31.884Z,22.40
2023-01-29T03:44:53.708Z,23.30
2023-01-29T03:48:12.820Z,22.60
2023-01-29T03:51:44.772Z,21.60
2023-01-29T03:54:55.765Z,22.90
2023-01-29T03:58:08.682Z,22.50
2023-01-29T04:01:24.949Z,25.60
2023-01-29T04:04:37.790Z,28.10
2023-01-29T04:07:39.726Z,25.80
2023-01-29T04:10:41.734Z,24.30
2023-01-29T04:13:43.836Z,22.80
2023-01-29T04:16:48.764Z,21.90
2023-01-29T04:20:05.999Z,22.50
2023-01-29T04:23:05.737Z,22.90
2023-01-29T04:26:12.860Z,22.90
2023-01-29T04:29:29.987Z,21.50
2023-01-29T04:33:20.779Z,21.90
2023-01-29T04:36:39.794Z,23.40
2023-01-29T04:39:42.721Z,25.40
2023-01-29T04:42:56.824Z,25.00
2023-01-29T04:46:15.793Z,24.40
2023-01-29T04:49:31.803Z,24.30
2023-01-29T04:52:46.799Z,26.70
2023-01-29T04:55:57.789Z,23.60
2023-01-29T04:59:02.787Z,25.10
2023-01-29T05:02:04.956Z,27.10
2023-01-29T05:05:04.800Z,22.60
2023-01-29T05:08:13.180Z,23.90
2023-01-29T05:11:14.847Z,22.60
2023-01-29T05:14:16.980Z,27.50
2023-01-29T05:17:20.837Z,19.20
2023-01-29T05:20:23.979Z,23.70
2023-01-29T05:23:34.453Z,23.20
2023-01-29T05:26:53.045Z,25.00
2023-01-29T05:29:59.667Z,27.20
2023-01-29T05:33:15.254Z,21.60
2023-01-29T05:36:16.464Z,23.90
2023-01-29T05:39:17.696Z,28.10
2023-01-29T05:42:18.935Z,20.70
2023-01-29T05:45:21.198Z,26.90
2023-01-29T05:48:22.218Z,25.30
2023-01-29T05:51:24.906Z,23.10
2023-01-29T05:57:21.105Z,25.00
2023-01-29T06:00:20.907Z,23.90
2023-01-29T06:03:22.915Z,26.70
2023-01-29T06:06:25.941Z,32.00
2023-01-29T06:09:30.189Z,24.60
2023-01-29T06:12:32.048Z,28.60
2023-01-29T06:15:34.099Z,28.10
2023-01-29T06:18:29.173Z,29.80
2023-01-29T06:21:29.924Z,29.90
2023-01-29T06:24:34.091Z,23.80
2023-01-29T06:27:33.953Z,28.80
2023-01-29T06:30:35.297Z,30.30
2023-01-29T06:33:35.990Z,29.20
2023-01-29T06:36:35.999Z,29.10
2023-01-29T06:39:36.838Z,30.60
2023-01-29T06:42:46.166Z,33.50
2023-01-29T06:45:49.009Z,30.90
2023-01-29T06:48:52.209Z,35.60
2023-01-29T06:51:53.995Z,36.00
2023-01-29T06:54:56.045Z,33.40
2023-01-29T06:58:00.235Z,32.20
2023-01-29T07:01:00.251Z,30.20
2023-01-29T07:04:07.000Z,30.90
2023-01-29T07:07:08.174Z,28.50
2023-01-29T07:10:09.311Z,26.90
2023-01-29T07:13:12.080Z,29.80
2023-01-29T07:16:14.088Z,33.20
2023-01-29T07:19:17.572Z,25.90
2023-01-29T07:22:19.099Z,31.50
2023-01-29T07:25:22.035Z,25.20
2023-01-29T07:28:23.069Z,27.30
2023-01-29T07:31:26.086Z,26.80
2023-01-29T07:34:27.186Z,29.60
2023-01-29T07:37:27.077Z,32.80
2023-01-29T07:40:31.279Z,27.30
2023-01-29T07:43:35.152Z,28.00
2023-01-29T07:46:38.448Z,30.40
2023-01-29T07:49:39.101Z,31.50
2023-01-29T07:52:40.097Z,27.80
2023-01-29T07:55:42.211Z,35.00
2023-01-29T07:58:44.129Z,31.90
2023-01-29T08:01:48.540Z,27.60
2023-01-29T08:04:51.126Z,26.80
2023-01-29T08:08:05.724Z,31.30
2023-01-29T08:11:07.140Z,29.20
2023-01-29T08:14:10.127Z,28.70
2023-01-29T08:17:11.216Z,26.30
2023-01-29T08:20:12.121Z,25.10
2023-01-29T08:23:19.137Z,27.30
2023-01-29T08:26:21.186Z,29.20
2023-01-29T08:29:24.088Z,34.80
2023-01-29T08:32:44.248Z,33.40
2023-01-29T08:35:44.182Z,29.80
2023-01-29T08:38:45.152Z,31.90
2023-01-29T08:41:50.225Z,33.10
2023-01-29T08:44:53.199Z,25.80
2023-01-29T08:48:03.136Z,30.30
2023-01-29T08:51:07.189Z,28.50
2023-01-29T08:54:08.161Z,30.90
2023-01-29T08:57:08.316Z,27.60
2023-01-29T09:00:09.409Z,31.40
2023-01-29T09:03:09.416Z,30.50
2023-01-29T09:06:11.196Z,33.90
2023-01-29T09:09:12.233Z,30.90
2023-01-29T09:12:13.230Z,27.10
2023-01-29T09:15:14.174Z,34.50
2023-01-29T09:18:17.299Z,26.50
2023-01-29T09:21:17.428Z,35.90
2023-01-29T09:24:17.237Z,31.20
2023-01-29T09:27:17.251Z,32.60
2023-01-29T09:30:19.326Z,32.30
2023-01-29T09:33:21.519Z,31.10
2023-01-29T09:36:22.377Z,35.10
2023-01-29T09:39:23.329Z,34.30
2023-01-29T09:42:36.524Z,33.80
2023-01-29T09:48:38.299Z,27.30
2023-01-29T09:51:56.368Z,32.30
2023-01-29T09:55:14.711Z,32.00
2023-01-29T09:58:27.301Z,34.70
2023-01-29T10:01:47.430Z,32.90
2023-01-29T10:04:58.272Z,34.10
2023-01-29T10:08:17.298Z,31.90
2023-01-29T10:11:32.312Z,33.60
2023-01-29T10:14:57.427Z,29.60
2023-01-29T10:18:04.394Z,31.60
2023-01-29T10:21:29.419Z,29.50
2023-01-29T10:24:43.330Z,35.00
2023-01-29T10:27:47.403Z,28.00
2023-01-29T10:30:51.445Z,26.20
2023-01-29T10:34:03.465Z,28.40
2023-01-29T10:37:03.441Z,28.10
2023-01-29T10:40:03.433Z,30.10
2023-01-29T10:43:08.405Z,30.30
2023-01-29T10:46:14.713Z,28.50
2023-01-29T10:49:55.430Z,27.90
2023-01-29T10:53:03.487Z,27.30
2023-01-29T10:56:23.695Z,25.30
2023-01-29T10:59:55.418Z,23.20
2023-01-29T11:02:59.532Z,34.30
2023-01-29T11:06:14.706Z,22.70
2023-01-29T11:09:57.443Z,26.90
2023-01-29T11:12:59.483Z,27.40
2023-01-29T11:15:59.607Z,29.10
2023-01-29T11:19:11.758Z,28.60
2023-01-29T11:22:15.504Z,26.00
2023-01-29T11:25:30.426Z,25.50
2023-01-29T11:28:34.432Z,24.90
2023-01-29T11:31:49.490Z,23.90
2023-01-29T11:34:49.483Z,27.20
2023-01-29T11:37:51.482Z,26.70
2023-01-29T11:40:52.457Z,21.60
2023-01-29T11:43:56.494Z,23.90
2023-01-29T11:46:58.187Z,24.90
2023-01-29T11:50:05.514Z,22.50
2023-01-29T11:53:05.572Z,20.40
2023-01-29T11:56:06.507Z,23.30
2023-01-29T11:59:10.489Z,21.90
2023-01-29T12:02:17.471Z,22.20
2023-01-29T12:05:30.591Z,18.60
2023-01-29T12:08:30.530Z,14.90
2023-01-29T12:11:46.596Z,18.20
2023-01-29T12:14:47.562Z,19.50
2023-01-29T12:17:49.491Z,18.10
2023-01-29T12:21:03.494Z,16.00
2023-01-29T12:24:08.531Z,19.80
2023-01-29T12:27:32.618Z,18.30
2023-01-29T12:30:38.582Z,15.20
2023-01-29T12:33:50.720Z,16.20
2023-01-29T12:37:08.525Z,16.80
2023-01-29T12:40:08.646Z,16.10
2023-01-29T12:43:09.591Z,14.90
2023-01-29T12:46:09.594Z,15.40
2023-01-29T12:49:13.578Z,17.50
2023-01-29T12:52:19.584Z,15.60
2023-01-29T12:55:32.604Z,15.80
2023-01-29T12:58:44.784Z,16.50
2023-01-29T13:01:50.648Z,15.70
2023-01-29T13:05:00.801Z,15.10
2023-01-29T13:08:04.968Z,15.60
2023-01-29T13:11:10.465Z,14.70
2023-01-29T13:14:18.064Z,16.00
2023-01-29T13:17:30.620Z,13.20
2023-01-29T13:20:35.617Z,17.20
2023-01-29T13:23:41.618Z,15.00
2023-01-29T13:26:43.710Z,16.10
2023-01-29T13:29:43.736Z,15.90
2023-01-29T13:32:47.346Z,15.00
2023-01-29T13:36:11.663Z,13.50
2023-01-29T13:39:40.704Z,14.00
2023-01-29T13:43:01.677Z,16.30
2023-01-29T13:46:02.839Z,16.90
2023-01-29T13:49:06.830Z,20.50
2023-01-29T13:52:06.646Z,16.20
2023-01-29T13:55:36.706Z,17.10
2023-01-29T13:58:46.895Z,18.60
2023-01-29T14:02:01.705Z,20.00
2023-01-29T14:05:02.758Z,24.60
2023-01-29T14:08:05.714Z,22.60
2023-01-29T14:11:47.727Z,21.40
2023-01-29T14:15:09.553Z,21.50
2023-01-29T14:18:32.773Z,22.80
2023-01-29T14:21:38.767Z,21.50
2023-01-29T14:24:48.752Z,22.20
2023-01-29T14:27:49.728Z,22.10
2023-01-29T14:30:52.816Z,19.60
2023-01-29T14:33:54.730Z,19.50
2023-01-29T14:37:01.764Z,19.40
2023-01-29T14:40:08.736Z,22.70
2023-01-29T14:43:16.773Z,19.90
2023-01-29T14:46:55.898Z,23.10
2023-01-29T14:50:01.787Z,20.40
2023-01-29T14:53:03.760Z,20.80
2023-01-29T14:56:16.011Z,18.10
2023-01-29T14:59:25.753Z,21.60
2023-01-29T15:02:39.838Z,23.80
2023-01-29T15:05:41.942Z,24.50
2023-01-29T15:08:47.806Z,34.60
2023-01-29T15:11:58.828Z,23.50
2023-01-29T15:15:27.455Z,26.30
2023-01-29T15:18:39.822Z,27.70
2023-01-29T15:21:40.243Z,25.50
2023-01-29T15:24:39.794Z,20.00
2023-01-29T15:27:42.835Z,20.60
2023-01-29T15:30:45.920Z,24.60
2023-01-29T15:33:55.903Z,22.60
2023-01-29T15:36:56.983Z,23.80
2023-01-29T15:40:12.991Z,23.60
2023-01-29T15:44:39.500Z,25.70
2023-01-29T15:47:26.943Z,29.20
2023-01-29T15:50:26.908Z,23.30
2023-01-29T15:53:29.862Z,23.00
2023-01-29T15:56:35.870Z,21.90
2023-01-29T15:59:45.942Z,14.60
2023-01-29T16:02:56.927Z,16.50
2023-01-29T16:05:56.874Z,16.60
2023-01-29T16:09:01.984Z,17.10
2023-01-29T16:12:04.926Z,18.40
2023-01-29T16:15:04.947Z,16.70
2023-01-29T16:18:05.946Z,21.20
2023-01-29T16:21:06.970Z,19.10
2023-01-29T16:24:16.038Z,18.90
2023-01-29T16:27:21.028Z,18.30
2023-01-29T16:30:26.020Z,18.50
2023-01-29T16:33:26.938Z,14.50
2023-01-29T16:36:31.943Z,14.70
2023-01-29T16:39:34.006Z,15.70
2023-01-29T16:42:45.002Z,18.50
2023-01-29T16:45:46.938Z,15.30
2023-01-29T16:48:48.005Z,17.40
2023-01-29T16:51:53.093Z,15.00
2023-01-29T16:54:55.065Z,14.10
2023-01-29T16:57:56.080Z,12.80
2023-01-29T17:00:57.004Z,14.90
2023-01-29T17:03:58.052Z,13.60
2023-01-29T17:07:00.982Z,15.10
2023-01-29T17:10:05.254Z,15.00
2023-01-29T17:13:11.005Z,15.80
2023-01-29T17:16:16.156Z,12.20
2023-01-29T17:19:24.130Z,12.90
2023-01-29T17:22:17.147Z,13.80
2023-01-29T17:25:18.367Z,12.90
2023-01-29T17:28:20.041Z,12.40
2023-01-29T17:31:24.149Z,14.30
2023-01-29T17:34:25.059Z,13.60
2023-01-29T17:37:28.102Z,11.10
2023-01-29T17:40:54.273Z,13.80
2023-01-29T17:43:57.185Z,13.70
2023-01-29T17:46:57.183Z,10.30
2023-01-29T17:49:57.087Z,11.80
2023-01-29T17:52:57.305Z,12.90
2023-01-29T17:56:01.075Z,12.50
2023-01-29T17:59:03.108Z,14.70
2023-01-29T18:02:03.187Z,14.10
2023-01-29T18:05:03.105Z,14.90
2023-01-29T18:08:04.078Z,15.70
2023-01-29T18:11:05.070Z,16.50
2023-01-29T18:14:13.614Z,16.00
2023-01-29T18:17:22.110Z,15.30
2023-01-29T18:20:51.436Z,16.00
2023-01-29T18:23:52.139Z,12.50
2023-01-29T18:29:57.253Z,13.20
2023-01-29T18:33:00.247Z,11.80
2023-01-29T18:36:04.206Z,15.90
2023-01-29T18:39:05.256Z,17.50
2023-01-29T18:42:08.194Z,13.60
2023-01-29T18:45:10.572Z,13.20
2023-01-29T18:48:11.137Z,12.90
2023-01-29T18:51:11.679Z,16.00
2023-01-29T18:54:12.150Z,12.20
2023-01-29T18:57:16.655Z,13.50
2023-01-29T19:00:36.144Z,13.10
2023-01-29T19:09:41.571Z,15.80
2023-01-29T19:12:44.215Z,16.40
2023-01-29T19:15:44.312Z,15.00
2023-01-29T19:18:37.570Z,18.40
2023-01-29T19:21:42.266Z,16.10
2023-01-29T19:24:45.289Z,14.40
2023-01-29T19:27:45.233Z,16.00
2023-01-29T19:30:45.487Z,16.20
2023-01-29T19:33:46.446Z,15.10
2023-01-29T19:36:47.376Z,18.90
2023-01-29T19:39:50.196Z,12.70
2023-01-29T19:42:51.278Z,12.50
2023-01-29T19:45:54.262Z,14.70
2023-01-29T19:52:21.325Z,14.20
2023-01-29T19:55:22.568Z,11.20
2023-01-29T19:58:32.341Z,10.90
2023-01-29T20:01:37.679Z,12.40
2023-01-29T20:04:38.530Z,11.50
2023-01-29T20:07:44.829Z,13.50
2023-01-29T20:10:47.372Z,13.50
2023-01-29T20:13:54.466Z,14.10
2023-01-29T20:17:16.295Z,11.80
2023-01-29T20:20:30.978Z,14.00
2023-01-29T20:24:01.339Z,13.30
2023-01-29T20:27:07.383Z,13.60
2023-01-29T20:34:28.075Z,14.70
2023-01-29T20:38:09.000Z,14.30
2023-01-29T20:41:37.591Z,16.30
2023-01-29T20:48:36.528Z,13.40
2023-01-29T20:52:01.341Z,10.90
2023-01-29T20:55:07.452Z,11.80
2023-01-29T20:58:21.342Z,11.90
2023-01-29T21:05:33.792Z,13.10
2023-01-29T21:08:52.111Z,12.80
2023-01-29T21:15:47.422Z,12.40
2023-01-29T21:18:53.437Z,14.60
2023-01-29T21:21:56.599Z,11.20
2023-01-29T21:24:59.436Z,12.90
2023-01-29T21:27:52.545Z,12.30
2023-01-29T21:30:53.459Z,10.80
2023-01-29T21:33:57.194Z,11.00
2023-01-29T21:36:58.422Z,13.40
2023-01-29T21:39:58.437Z,10.50
2023-01-29T21:43:17.414Z,10.70
2023-01-29T21:46:19.546Z,13.30
2023-01-29T21:49:20.394Z,12.00
2023-01-29T21:52:20.898Z,11.60
2023-01-29T21:55:27.693Z,11.70
2023-01-29T21:58:28.578Z,11.90
2023-01-29T22:01:48.575Z,12.50
2023-01-29T22:05:02.415Z,8.80
2023-01-29T22:08:12.519Z,12.10
2023-01-29T22:11:20.474Z,10.20
2023-01-29T22:14:24.523Z,10.50
2023-01-29T22:17:26.815Z,9.00
2023-01-29T22:20:26.534Z,10.40
2023-01-29T22:23:27.553Z,8.50
2023-01-29T22:26:27.553Z,7.80
2023-01-29T22:29:27.574Z,8.30
2023-01-29T22:32:28.701Z,10.20
2023-01-29T22:35:28.504Z,7.40
2023-01-29T22:38:29.951Z,9.50
2023-01-29T22:41:32.841Z,9.00
2023-01-29T22:44:33.764Z,11.70
2023-01-29T22:47:33.522Z,12.70
2023-01-29T22:50:34.560Z,10.70
2023-01-29T22:53:35.144Z,10.10
2023-01-29T22:56:37.565Z,10.10
2023-01-29T22:59:37.543Z,8.10
2023-01-29T23:02:30.716Z,8.40
2023-01-29T23:05:30.570Z,10.30
2023-01-29T23:08:31.558Z,8.50
2023-01-29T23:11:35.593Z,10.50
2023-01-29T23:14:38.785Z,9.90
2023-01-29T23:17:42.684Z,7.40
2023-01-29T23:20:43.619Z,9.60
2023-01-29T23:23:45.200Z,8.40
2023-01-29T23:27:04.644Z,8.90
2023-01-29T23:30:07.632Z,7.90
2023-01-29T23:33:12.232Z,7.10
2023-01-29T23:36:13.632Z,6.70
2023-01-29T23:39:16.468Z,7.90
2023-01-29T23:42:24.917Z,7.80
2023-01-29T23:45:25.680Z,8.70
2023-01-29T23:48:26.782Z,6.00
2023-01-29T23:54:29.812Z,6.90
2023-01-29T23:57:30.349Z,7.90
